createdAt,value
2023-05-05T00:01:02.152Z,8.30
2023-05-05T00:03:30.800Z,8.20
2023-05-05T00:05:58.910Z,8.10
2023-05-05T00:08:27.087Z,7.90
2023-05-05T00:10:56.006Z,8.00
2023-05-05T00:13:25.617Z,8.10
2023-05-05T00:15:55.187Z,7.90
2023-05-05T00:18:23.439Z,7.90
2023-05-05T00:20:51.546Z,7.90
2023-05-05T00:23:20.840Z,7.90
2023-05-05T00:25:48.937Z,8.10
2023-05-05T00:28:17.024Z,8.00
2023-05-05T00:30:46.652Z,7.90
2023-05-05T00:33:14.766Z,7.60
2023-05-05T00:35:43.099Z,7.60
2023-05-05T00:38:11.133Z,7.60
2023-05-05T00:40:39.185Z,7.70
2023-05-05T00:43:07.577Z,7.90
2023-05-05T00:45:37.355Z,7.90
2023-05-05T00:48:10.290Z,7.90
2023-05-05T00:50:39.327Z,7.70
2023-05-05T00:53:08.041Z,7.50
2023-05-05T00:55:36.647Z,7.60
2023-05-05T00:58:05.295Z,7.60
2023-05-05T01:00:34.272Z,7.60
2023-05-05T01:03:03.164Z,7.60
2023-05-05T01:05:38.204Z,7.60
2023-05-05T01:08:19.468Z,7.50
2023-05-05T01:10:54.208Z,7.30
2023-05-05T01:13:32.587Z,7.10
2023-05-05T01:16:08.411Z,6.90
2023-05-05T01:18:45.500Z,6.70
2023-05-05T01:21:21.175Z,6.70
2023-05-05T01:24:21.062Z,6.60
2023-05-05T01:27:00.096Z,6.60
2023-05-05T01:29:49.401Z,6.60
2023-05-05T01:32:23.178Z,6.60
2023-05-05T01:34:57.246Z,6.60
2023-05-05T01:37:30.107Z,6.70
2023-05-05T01:40:01.731Z,6.70
2023-05-05T01:42:31.697Z,6.80
2023-05-05T01:45:00.620Z,7.00
2023-05-05T01:47:32.098Z,7.10
2023-05-05T01:50:01.269Z,7.20
2023-05-05T01:52:31.036Z,7.30
2023-05-05T01:55:00.236Z,7.30
2023-05-05T01:57:31.973Z,7.20
2023-05-05T02:00:01.778Z,7.10
2023-05-05T02:02:34.190Z,7.10
2023-05-05T02:05:04.308Z,7.10
2023-05-05T02:07:34.133Z,7.20
2023-05-05T02:10:03.273Z,7.20
2023-05-05T02:12:32.450Z,7.20
2023-05-05T02:15:02.367Z,7.00
2023-05-05T02:17:33.047Z,7.00
2023-05-05T02:20:02.942Z,7.10
2023-05-05T02:22:31.652Z,7.20
2023-05-05T02:25:01.072Z,7.00
2023-05-05T02:27:30.053Z,6.90
2023-05-05T02:30:00.697Z,7.00
2023-05-05T02:32:35.310Z,7.00
2023-05-05T02:35:11.869Z,6.80
2023-05-05T02:37:47.525Z,6.80
2023-05-05T02:40:21.124Z,6.80
2023-05-05T02:42:51.120Z,6.70
2023-05-05T02:45:23.670Z,6.90
2023-05-05T02:47:53.318Z,6.90
2023-05-05T02:50:22.733Z,6.80
2023-05-05T02:53:01.669Z,6.90
2023-05-05T02:55:38.186Z,6.70
2023-05-05T02:58:08.556Z,6.70
2023-05-05T03:00:48.526Z,6.60
2023-05-05T03:03:26.993Z,6.70
2023-05-05T03:06:01.919Z,6.80
2023-05-05T03:08:34.775Z,6.60
2023-05-05T03:11:07.896Z,6.60
2023-05-05T03:13:43.545Z,6.50
2023-05-05T03:16:18.787Z,6.50
2023-05-05T03:18:51.053Z,6.40
2023-05-05T03:21:19.890Z,6.30
2023-05-05T03:23:48.014Z,6.20
2023-05-05T03:26:21.274Z,6.40
2023-05-05T03:28:49.323Z,6.40
2023-05-05T03:31:28.328Z,6.50
2023-05-05T03:34:00.846Z,6.50
2023-05-05T03:36:33.777Z,6.50
2023-05-05T03:39:02.232Z,6.30
2023-05-05T03:41:33.956Z,6.40
2023-05-05T03:44:02.104Z,6.30
2023-05-05T03:46:30.705Z,6.30
2023-05-05T03:49:00.216Z,6.30
2023-05-05T03:51:29.445Z,6.10
2023-05-05T03:53:57.964Z,6.20
2023-05-05T03:56:25.987Z,6.10
2023-05-05T03:58:54.653Z,6.20
2023-05-05T04:01:23.310Z,6.20
2023-05-05T04:03:52.054Z,6.50
2023-05-05T04:06:22.376Z,6.60
2023-05-05T04:08:50.408Z,6.70
2023-05-05T04:11:18.650Z,6.70
2023-05-05T04:13:47.018Z,6.60
2023-05-05T04:16:15.275Z,6.80
2023-05-05T04:18:43.494Z,6.90
2023-05-05T04:21:11.671Z,6.90
2023-05-05T04:23:42.034Z,6.90
2023-05-05T04:26:10.171Z,6.80
2023-05-05T04:28:38.383Z,6.90
2023-05-05T04:31:06.551Z,7.50
2023-05-05T04:33:37.851Z,8.10
2023-05-05T04:36:06.607Z,8.30
2023-05-05T04:38:34.979Z,8.10
2023-05-05T04:41:07.461Z,7.90
2023-05-05T04:43:37.121Z,7.80
2023-05-05T04:46:06.051Z,7.90
2023-05-05T04:48:37.869Z,8.10
2023-05-05T04:51:06.902Z,8.10
2023-05-05T04:53:36.067Z,8.60
2023-05-05T04:56:04.400Z,10.30
2023-05-05T04:58:33.866Z,11.10
2023-05-05T05:01:01.930Z,11.60
2023-05-05T05:03:32.026Z,11.30
2023-05-05T05:06:00.287Z,10.50
2023-05-05T05:08:28.392Z,10.60
2023-05-05T05:10:56.461Z,10.60
2023-05-05T05:13:24.584Z,10.40
2023-05-05T05:15:54.048Z,10.50
2023-05-05T05:18:22.336Z,10.80
2023-05-05T05:20:51.635Z,11.00
2023-05-05T05:23:19.757Z,10.90
2023-05-05T05:25:48.212Z,11.20
2023-05-05T05:28:18.704Z,11.50
2023-05-05T05:30:53.847Z,12.00
2023-05-05T05:33:23.076Z,11.70
2023-05-05T05:35:52.929Z,11.70
2023-05-05T05:38:33.634Z,11.60
2023-05-05T05:41:08.099Z,11.60
2023-05-05T05:43:38.967Z,11.80
2023-05-05T05:46:11.441Z,11.90
2023-05-05T05:48:41.418Z,12.20
2023-05-05T05:51:10.220Z,12.50
2023-05-05T05:53:39.886Z,12.40
2023-05-05T05:56:11.216Z,12.30
2023-05-05T05:58:40.763Z,12.60
2023-05-05T06:01:14.189Z,12.80
2023-05-05T06:03:43.306Z,12.50
2023-05-05T06:06:12.444Z,12.30
2023-05-05T06:08:41.313Z,12.60
2023-05-05T06:11:09.818Z,12.80
2023-05-05T06:13:38.624Z,13.10
2023-05-05T06:16:08.871Z,13.00
2023-05-05T06:18:41.116Z,13.30
2023-05-05T06:21:10.046Z,13.30
2023-05-05T06:23:39.151Z,13.30
2023-05-05T06:26:09.139Z,12.90
2023-05-05T06:28:37.990Z,13.60
2023-05-05T06:31:06.584Z,13.60
2023-05-05T06:33:35.257Z,13.40
2023-05-05T06:36:06.020Z,14.00
2023-05-05T06:38:35.150Z,14.40
2023-05-05T06:41:04.879Z,14.90
2023-05-05T06:43:33.433Z,15.10
2023-05-05T06:46:05.522Z,15.00
2023-05-05T06:48:34.484Z,15.50
2023-05-05T06:51:04.798Z,15.60
2023-05-05T06:53:33.772Z,15.70
2023-05-05T06:56:02.147Z,15.90
2023-05-05T06:58:31.625Z,15.90
2023-05-05T07:01:00.282Z,16.10
2023-05-05T07:03:29.452Z,16.10
2023-05-05T07:05:57.909Z,16.00
2023-05-05T07:08:28.350Z,16.00
2023-05-05T07:10:56.981Z,16.30
2023-05-05T07:13:25.738Z,16.50
2023-05-05T07:15:54.379Z,16.90
2023-05-05T07:18:23.335Z,17.10
2023-05-05T07:20:52.068Z,17.30
2023-05-05T07:23:23.172Z,17.20
2023-05-05T07:25:53.588Z,17.10
2023-05-05T07:28:22.414Z,17.00
2023-05-05T07:30:52.551Z,16.90
2023-05-05T07:33:21.284Z,16.80
2023-05-05T07:35:49.635Z,16.80
2023-05-05T07:38:18.314Z,16.90
2023-05-05T07:40:49.011Z,16.90
2023-05-05T07:43:19.157Z,17.20
2023-05-05T07:45:48.077Z,17.40
2023-05-05T07:48:16.757Z,17.30
2023-05-05T07:50:47.827Z,17.50
2023-05-05T07:53:17.687Z,17.70
2023-05-05T07:55:46.720Z,17.80
2023-05-05T07:58:15.127Z,18.00
2023-05-05T08:00:45.284Z,18.10
2023-05-05T08:03:14.120Z,18.20
2023-05-05T08:05:43.351Z,18.20
2023-05-05T08:08:12.096Z,18.00
2023-05-05T08:10:41.430Z,17.10
2023-05-05T08:13:12.279Z,18.00
2023-05-05T08:15:41.354Z,18.40
2023-05-05T08:18:11.922Z,18.40
2023-05-05T08:20:43.820Z,18.10
2023-05-05T08:23:12.548Z,18.70
2023-05-05T08:25:41.467Z,19.10
2023-05-05T08:28:10.293Z,18.80
2023-05-05T08:30:40.011Z,18.90
2023-05-05T08:33:08.787Z,18.80
2023-05-05T08:35:41.862Z,18.40
2023-05-05T08:38:12.330Z,18.40
2023-05-05T08:40:44.875Z,17.20
2023-05-05T08:43:16.123Z,18.80
2023-05-05T08:45:45.362Z,18.30
2023-05-05T08:48:15.289Z,19.50
2023-05-05T08:50:50.179Z,19.20
2023-05-05T08:53:20.155Z,19.60
2023-05-05T08:55:52.889Z,18.70
2023-05-05T08:58:22.485Z,18.20
2023-05-05T09:00:52.453Z,18.60
2023-05-05T09:03:21.946Z,18.80
2023-05-05T09:05:52.483Z,19.40
2023-05-05T09:08:22.306Z,18.80
2023-05-05T09:10:52.873Z,19.40
2023-05-05T09:13:22.550Z,19.80
2023-05-05T09:15:51.563Z,19.60
2023-05-05T09:18:20.767Z,19.20
2023-05-05T09:20:50.019Z,19.50
2023-05-05T09:23:21.604Z,20.20
2023-05-05T09:26:05.142Z,18.90
2023-05-05T09:28:37.562Z,20.50
2023-05-05T09:31:20.145Z,20.40
2023-05-05T09:33:49.436Z,20.30
2023-05-05T09:36:20.230Z,19.10
2023-05-05T09:39:07.558Z,20.50
2023-05-05T09:41:43.599Z,20.90
2023-05-05T09:44:16.349Z,21.00
2023-05-05T09:46:53.210Z,21.00
2023-05-05T09:49:25.786Z,20.70
2023-05-05T09:51:56.979Z,21.00
2023-05-05T09:54:29.660Z,21.20
2023-05-05T09:56:59.890Z,21.40
2023-05-05T09:59:31.118Z,21.30
2023-05-05T10:02:12.961Z,21.20
2023-05-05T10:04:49.641Z,21.30
2023-05-05T10:07:25.886Z,21.40
2023-05-05T10:09:56.970Z,20.90
2023-05-05T10:12:26.928Z,20.90
2023-05-05T10:17:30.143Z,21.80
2023-05-05T10:20:00.985Z,21.30
2023-05-05T10:22:34.276Z,21.10
2023-05-05T10:25:11.166Z,21.80
2023-05-05T10:27:45.801Z,21.80
2023-05-05T10:30:21.897Z,21.40
2023-05-05T10:33:04.060Z,21.90
2023-05-05T10:35:42.012Z,21.80
2023-05-05T10:38:11.465Z,22.20
2023-05-05T10:40:46.536Z,21.80
2023-05-05T10:43:16.758Z,21.70
2023-05-05T10:45:46.113Z,22.40
2023-05-05T10:48:22.881Z,21.70
2023-05-05T10:50:57.124Z,22.20
2023-05-05T10:53:31.199Z,22.40
2023-05-05T10:56:08.137Z,22.00
2023-05-05T10:58:51.277Z,22.80
2023-05-05T11:01:33.302Z,22.80
2023-05-05T11:04:22.101Z,22.70
2023-05-05T11:07:27.509Z,22.60
2023-05-05T11:09:58.052Z,22.70
2023-05-05T11:12:28.852Z,22.70
2023-05-05T11:15:42.609Z,23.20
2023-05-05T11:18:31.152Z,23.30
2023-05-05T11:21:15.624Z,23.10
2023-05-05T11:23:52.323Z,23.10
2023-05-05T11:26:51.631Z,22.30
2023-05-05T11:29:22.120Z,23.70
2023-05-05T11:32:16.054Z,23.50
2023-05-05T11:34:52.071Z,23.40
2023-05-05T11:37:25.848Z,23.80
2023-05-05T11:40:03.586Z,23.80
2023-05-05T11:42:33.469Z,23.90
2023-05-05T11:45:04.518Z,23.50
2023-05-05T11:47:34.143Z,23.80
2023-05-05T11:50:21.772Z,23.40
2023-05-05T11:52:51.357Z,24.20
2023-05-05T11:55:23.965Z,24.60
2023-05-05T11:57:52.772Z,24.10
2023-05-05T12:00:34.284Z,23.80
2023-05-05T12:03:02.843Z,24.00
2023-05-05T12:05:33.588Z,24.90
2023-05-05T12:08:03.451Z,24.20
2023-05-05T12:10:32.246Z,24.80
2023-05-05T12:13:03.092Z,25.40
2023-05-05T12:15:37.405Z,23.50
2023-05-05T12:18:06.563Z,24.20
2023-05-05T12:20:37.199Z,24.30
2023-05-05T12:23:06.316Z,24.30
2023-05-05T12:25:39.709Z,23.80
2023-05-05T12:28:09.780Z,23.80
2023-05-05T12:30:44.311Z,24.30
2023-05-05T12:33:12.685Z,24.20
2023-05-05T12:35:42.121Z,23.60
2023-05-05T12:38:11.054Z,23.90
2023-05-05T12:40:58.303Z,24.00
2023-05-05T12:43:32.099Z,25.00
2023-05-05T12:46:17.827Z,24.70
2023-05-05T12:48:48.376Z,25.70
2023-05-05T12:51:23.736Z,25.30
2023-05-05T12:54:05.744Z,25.20
2023-05-05T12:56:36.832Z,25.20
2023-05-05T12:59:07.991Z,25.20
2023-05-05T13:01:49.764Z,24.70
2023-05-05T13:04:19.626Z,25.50
2023-05-05T13:06:54.051Z,25.50
2023-05-05T13:09:30.403Z,25.60
2023-05-05T13:12:00.106Z,24.90
2023-05-05T13:14:29.260Z,25.50
2023-05-05T13:17:00.766Z,25.40
2023-05-05T13:19:29.777Z,25.40
2023-05-05T13:22:00.286Z,26.90
2023-05-05T13:24:46.539Z,26.80
2023-05-05T13:27:19.469Z,25.80
2023-05-05T13:29:48.438Z,26.20
2023-05-05T13:32:19.173Z,26.90
2023-05-05T13:34:48.495Z,25.30
2023-05-05T13:37:17.698Z,25.90
2023-05-05T13:39:46.583Z,27.00
2023-05-05T13:42:15.141Z,26.10
2023-05-05T13:44:43.991Z,26.40
2023-05-05T13:49:44.601Z,26.70
2023-05-05T13:52:13.307Z,26.40
2023-05-05T13:54:42.435Z,26.60
2023-05-05T13:57:12.950Z,27.60
2023-05-05T13:59:43.267Z,29.30
2023-05-05T14:02:12.367Z,28.00
2023-05-05T14:04:41.640Z,27.70
2023-05-05T14:07:13.171Z,26.70
2023-05-05T14:09:42.147Z,27.70
2023-05-05T14:12:10.777Z,27.50
2023-05-05T14:14:40.581Z,27.80
2023-05-05T14:17:09.234Z,27.00
2023-05-05T14:19:39.116Z,26.30
2023-05-05T14:22:07.968Z,25.30
2023-05-05T14:24:39.119Z,25.50
2023-05-05T14:27:07.761Z,26.00
2023-05-05T14:29:36.976Z,26.70
2023-05-05T14:32:07.095Z,26.70
2023-05-05T14:34:35.707Z,25.80
2023-05-05T14:37:04.734Z,26.10
2023-05-05T14:39:33.630Z,25.70
2023-05-05T14:42:05.140Z,25.80
2023-05-05T14:44:34.099Z,25.20
2023-05-05T14:47:02.847Z,26.30
2023-05-05T14:49:31.685Z,25.90
2023-05-05T14:52:00.728Z,26.70
2023-05-05T14:54:29.499Z,26.40
2023-05-05T14:57:00.767Z,26.20
2023-05-05T14:59:31.039Z,26.90
2023-05-05T15:01:59.818Z,26.50
2023-05-05T15:04:28.754Z,26.20
2023-05-05T15:06:59.132Z,26.20
2023-05-05T15:09:29.677Z,26.00
2023-05-05T15:11:58.485Z,25.90
2023-05-05T15:14:27.087Z,26.00
2023-05-05T15:16:58.609Z,25.90
2023-05-05T15:19:27.292Z,25.60
2023-05-05T15:21:56.066Z,25.50
2023-05-05T15:24:24.762Z,24.40
2023-05-05T15:26:54.426Z,24.30
2023-05-05T15:29:24.448Z,24.60
2023-05-05T15:31:53.457Z,25.10
2023-05-05T15:34:23.341Z,25.10
2023-05-05T15:36:52.066Z,25.10
2023-05-05T15:39:21.160Z,25.00
2023-05-05T15:41:50.973Z,24.60
2023-05-05T15:44:24.020Z,24.60
2023-05-05T15:46:53.542Z,24.60
2023-05-05T15:49:23.832Z,24.40
2023-05-05T15:51:52.788Z,24.60
2023-05-05T15:54:21.317Z,24.60
2023-05-05T15:56:50.259Z,24.70
2023-05-05T15:59:19.513Z,25.00
2023-05-05T16:01:49.586Z,25.00
2023-05-05T16:04:18.473Z,25.00
2023-05-05T16:06:48.937Z,25.80
2023-05-05T16:09:18.004Z,25.60
2023-05-05T16:11:46.622Z,25.90
2023-05-05T16:14:15.529Z,25.30
2023-05-05T16:16:45.287Z,25.40
2023-05-05T16:19:14.376Z,24.90
2023-05-05T16:21:43.302Z,24.70
2023-05-05T16:24:17.097Z,24.80
2023-05-05T16:26:47.114Z,24.90
2023-05-05T16:29:16.987Z,25.00
2023-05-05T16:31:46.315Z,25.30
2023-05-05T16:34:15.219Z,25.30
2023-05-05T16:36:44.538Z,25.30
2023-05-05T16:39:16.066Z,25.30
2023-05-05T16:41:45.093Z,26.10
2023-05-05T16:44:14.816Z,26.00
2023-05-05T16:46:43.620Z,26.60
2023-05-05T16:49:12.613Z,26.30
2023-05-05T16:51:41.484Z,25.40
2023-05-05T16:54:09.965Z,25.40
2023-05-05T16:56:41.034Z,25.20
2023-05-05T16:59:10.060Z,24.50
2023-05-05T17:01:38.830Z,24.30
2023-05-05T17:04:07.990Z,24.00
2023-05-05T17:06:36.415Z,23.80
2023-05-05T17:09:06.325Z,23.60
2023-05-05T17:11:35.343Z,23.70
2023-05-05T17:14:06.083Z,23.60
2023-05-05T17:16:34.744Z,23.40
2023-05-05T17:19:04.363Z,23.30
2023-05-05T17:21:33.453Z,23.30
2023-05-05T17:24:02.665Z,23.10
2023-05-05T17:26:33.294Z,23.00
2023-05-05T17:29:02.132Z,23.00
2023-05-05T17:31:33.065Z,22.60
2023-05-05T17:34:01.693Z,22.40
2023-05-05T17:36:30.704Z,22.50
2023-05-05T17:39:00.299Z,22.50
2023-05-05T17:41:30.102Z,22.40
2023-05-05T17:43:59.695Z,22.10
2023-05-05T17:46:29.597Z,21.90
2023-05-05T17:49:00.605Z,22.20
2023-05-05T17:51:31.771Z,22.30
2023-05-05T17:54:00.007Z,21.90
2023-05-05T17:56:29.059Z,22.20
2023-05-05T17:58:57.738Z,21.90
2023-05-05T18:01:28.154Z,21.80
2023-05-05T18:03:57.060Z,21.70
2023-05-05T18:06:27.628Z,21.80
2023-05-05T18:08:56.532Z,21.90
2023-05-05T18:11:29.054Z,21.90
2023-05-05T18:13:58.052Z,21.80
2023-05-05T18:16:27.037Z,21.20
2023-05-05T18:18:55.656Z,20.70
2023-05-05T18:21:24.597Z,20.60
2023-05-05T18:24:01.701Z,20.40
2023-05-05T18:26:36.833Z,20.40
2023-05-05T18:29:05.860Z,20.40
2023-05-05T18:31:34.703Z,19.70
2023-05-05T18:34:04.167Z,18.80
2023-05-05T18:36:33.144Z,18.60
2023-05-05T18:39:03.951Z,18.70
2023-05-05T18:41:33.096Z,18.90
2023-05-05T18:44:01.824Z,19.00
2023-05-05T18:46:30.711Z,19.00
2023-05-05T18:49:00.653Z,18.80
2023-05-05T18:51:29.442Z,18.50
2023-05-05T18:53:58.377Z,18.30
2023-05-05T18:56:29.888Z,19.10
2023-05-05T18:58:59.707Z,19.60
2023-05-05T19:01:28.917Z,18.80
2023-05-05T19:03:57.519Z,18.40
2023-05-05T19:06:26.556Z,18.00
2023-05-05T19:08:56.769Z,17.80
2023-05-05T19:11:25.644Z,17.40
2023-05-05T19:13:55.738Z,17.20
2023-05-05T19:16:24.048Z,16.80
2023-05-05T19:18:54.111Z,15.60
2023-05-05T19:21:22.092Z,12.20
2023-05-05T19:23:50.309Z,9.70
2023-05-05T19:26:18.444Z,9.40
2023-05-05T19:28:46.499Z,9.50
2023-05-05T19:31:15.875Z,9.60
2023-05-05T19:33:45.663Z,9.50
2023-05-05T19:36:13.895Z,9.80
2023-05-05T19:38:44.332Z,9.90
2023-05-05T19:41:12.977Z,10.20
2023-05-05T19:43:41.067Z,10.50
2023-05-05T19:46:09.109Z,10.30
2023-05-05T19:48:39.005Z,10.40
2023-05-05T19:51:07.086Z,10.30
2023-05-05T19:53:35.755Z,10.30
2023-05-05T19:56:04.781Z,10.40
2023-05-05T19:58:53.426Z,10.30
2023-05-05T20:01:21.575Z,10.40
2023-05-05T20:03:51.292Z,10.40
2023-05-05T20:06:19.416Z,10.50
2023-05-05T20:08:47.466Z,10.60
2023-05-05T20:11:16.838Z,10.50
2023-05-05T20:13:45.287Z,10.50
2023-05-05T20:16:14.773Z,10.50
2023-05-05T20:18:42.790Z,10.50
2023-05-05T20:21:12.193Z,10.60
2023-05-05T20:23:40.260Z,10.60
2023-05-05T20:26:08.349Z,10.60
2023-05-05T20:28:39.025Z,10.70
2023-05-05T20:31:07.227Z,10.70
2023-05-05T20:33:35.542Z,10.80
2023-05-05T20:36:03.683Z,10.70
2023-05-05T20:38:33.090Z,10.70
2023-05-05T20:41:01.283Z,10.60
2023-05-05T20:43:29.494Z,10.70
2023-05-05T20:45:57.532Z,10.70
2023-05-05T20:48:25.678Z,10.70
2023-05-05T20:50:53.698Z,10.70
2023-05-05T20:53:24.268Z,10.70
2023-05-05T20:55:55.348Z,10.70
2023-05-05T20:58:23.529Z,10.70
2023-05-05T21:00:52.072Z,10.80
2023-05-05T21:03:20.120Z,10.80
2023-05-05T21:05:48.271Z,10.70
2023-05-05T21:08:16.315Z,10.70
2023-05-05T21:10:44.420Z,10.80
2023-05-05T21:13:14.248Z,10.80
2023-05-05T21:15:42.296Z,10.90
2023-05-05T21:18:10.422Z,10.90
2023-05-05T21:20:38.434Z,10.90
2023-05-05T21:23:06.419Z,10.90
2023-05-05T21:25:34.581Z,10.90
2023-05-05T21:28:02.578Z,10.90
2023-05-05T21:30:32.011Z,11.00
2023-05-05T21:33:00.416Z,11.00
2023-05-05T21:35:28.501Z,11.00
2023-05-05T21:37:56.560Z,10.90
2023-05-05T21:40:24.608Z,11.00
2023-05-05T21:42:52.713Z,10.90
2023-05-05T21:45:21.055Z,10.90
2023-05-05T21:47:50.819Z,10.90
2023-05-05T21:50:18.971Z,10.90
2023-05-05T21:52:46.988Z,10.90
2023-05-05T21:55:15.474Z,10.80
2023-05-05T21:57:44.627Z,10.90
2023-05-05T22:00:16.625Z,10.90
2023-05-05T22:02:44.940Z,10.90
2023-05-05T22:05:14.457Z,10.80
2023-05-05T22:07:42.489Z,10.90
2023-05-05T22:10:11.186Z,10.80
2023-05-05T22:12:39.576Z,10.90
2023-05-05T22:15:09.220Z,10.90
2023-05-05T22:17:37.709Z,10.90
2023-05-05T22:20:06.697Z,10.80
2023-05-05T22:22:36.189Z,10.80
2023-05-05T22:25:04.346Z,10.90
2023-05-05T22:27:32.365Z,10.90
2023-05-05T22:30:00.479Z,10.90
2023-05-05T22:32:28.518Z,10.90
2023-05-05T22:34:56.675Z,10.90
2023-05-05T22:37:24.756Z,10.90
2023-05-05T22:39:54.147Z,10.90
2023-05-05T22:42:22.137Z,10.90
2023-05-05T22:44:50.275Z,10.90
2023-05-05T22:47:19.066Z,10.90
2023-05-05T22:49:47.325Z,10.90
2023-05-05T22:52:15.925Z,10.90
2023-05-05T22:54:44.001Z,11.00
2023-05-05T22:57:13.460Z,10.90
2023-05-05T22:59:41.516Z,10.90
2023-05-05T23:02:09.578Z,10.90
2023-05-05T23:04:37.851Z,10.80
2023-05-05T23:07:05.901Z,10.80
2023-05-05T23:09:33.928Z,10.80
2023-05-05T23:12:01.881Z,10.70
2023-05-05T23:14:31.266Z,10.70
2023-05-05T23:16:59.606Z,10.70
2023-05-05T23:19:28.998Z,10.70
2023-05-05T23:21:57.038Z,10.60
2023-05-05T23:24:25.215Z,10.60
2023-05-05T23:26:53.493Z,10.60
2023-05-05T23:29:21.826Z,10.50
2023-05-05T23:31:51.734Z,10.60
2023-05-05T23:34:19.776Z,10.50
2023-05-05T23:36:47.854Z,10.40
2023-05-05T23:39:16.501Z,10.30
2023-05-05T23:41:44.512Z,10.20
2023-05-05T23:44:12.497Z,10.20
2023-05-05T23:46:40.596Z,10.20
2023-05-05T23:49:09.943Z,10.20
2023-05-05T23:51:38.010Z,10.20
2023-05-05T23:54:06.086Z,10.10
2023-05-05T23:56:34.140Z,10.20
2023-05-05T23:59:02.153Z,10.20
